sensor_id;sensor_type;location;lat;lon;timestamp;temperature;humidity
8936;DHT22;4503;47.810;13.072;2022-07-17T00:00:17;20.40;46.50
8936;DHT22;4503;47.810;13.072;2022-07-17T00:02:43;20.40;46.70
8936;DHT22;4503;47.810;13.072;2022-07-17T00:05:09;20.40;46.70
8936;DHT22;4503;47.810;13.072;2022-07-17T00:07:35;20.30;46.70
8936;DHT22;4503;47.810;13.072;2022-07-17T00:10:02;20.30;46.80
8936;DHT22;4503;47.810;13.072;2022-07-17T00:12:28;20.20;47.00
8936;DHT22;4503;47.810;13.072;2022-07-17T00:14:54;20.20;47.60
8936;DHT22;4503;47.810;13.072;2022-07-17T00:17:20;20.20;47.10
8936;DHT22;4503;47.810;13.072;2022-07-17T00:19:47;20.20;47.20
8936;DHT22;4503;47.810;13.072;2022-07-17T00:22:13;20.10;47.10
8936;DHT22;4503;47.810;13.072;2022-07-17T00:24:39;20.10;47.10
8936;DHT22;4503;47.810;13.072;2022-07-17T00:27:05;20.10;47.20
8936;DHT22;4503;47.810;13.072;2022-07-17T00:29:31;20.00;47.10
8936;DHT22;4503;47.810;13.072;2022-07-17T00:31:57;20.10;47.20
8936;DHT22;4503;47.810;13.072;2022-07-17T00:34:23;20.00;47.30
8936;DHT22;4503;47.810;13.072;2022-07-17T00:36:49;20.00;47.30
8936;DHT22;4503;47.810;13.072;2022-07-17T00:39:15;20.00;47.30
8936;DHT22;4503;47.810;13.072;2022-07-17T00:41:43;20.00;47.40
8936;DHT22;4503;47.810;13.072;2022-07-17T00:44:11;20.00;47.60
8936;DHT22;4503;47.810;13.072;2022-07-17T00:46:38;19.90;48.10
8936;DHT22;4503;47.810;13.072;2022-07-17T00:49:06;19.90;47.60
8936;DHT22;4503;47.810;13.072;2022-07-17T00:51:33;19.90;47.60
8936;DHT22;4503;47.810;13.072;2022-07-17T00:54:00;19.90;47.60
8936;DHT22;4503;47.810;13.072;2022-07-17T00:56:28;19.80;47.60
8936;DHT22;4503;47.810;13.072;2022-07-17T00:58:55;19.80;47.60
8936;DHT22;4503;47.810;13.072;2022-07-17T01:01:21;19.80;47.80
8936;DHT22;4503;47.810;13.072;2022-07-17T01:03:47;19.80;47.90
8936;DHT22;4503;47.810;13.072;2022-07-17T01:06:13;19.70;47.90
8936;DHT22;4503;47.810;13.072;2022-07-17T01:08:39;19.70;48.10
8936;DHT22;4503;47.810;13.072;2022-07-17T01:11:08;19.70;48.10
8936;DHT22;4503;47.810;13.072;2022-07-17T01:13:35;19.60;48.20
8936;DHT22;4503;47.810;13.072;2022-07-17T01:16:01;19.60;48.20
8936;DHT22;4503;47.810;13.072;2022-07-17T01:18:27;19.50;48.20
8936;DHT22;4503;47.810;13.072;2022-07-17T01:20:53;19.50;48.40
8936;DHT22;4503;47.810;13.072;2022-07-17T01:23:20;19.50;48.60
8936;DHT22;4503;47.810;13.072;2022-07-17T01:25:46;19.40;48.60
8936;DHT22;4503;47.810;13.072;2022-07-17T01:28:13;19.40;48.60
8936;DHT22;4503;47.810;13.072;2022-07-17T01:30:49;19.30;48.70
8936;DHT22;4503;47.810;13.072;2022-07-17T01:33:17;19.30;48.90
8936;DHT22;4503;47.810;13.072;2022-07-17T01:35:44;19.30;48.70
8936;DHT22;4503;47.810;13.072;2022-07-17T01:38:10;19.20;48.70
8936;DHT22;4503;47.810;13.072;2022-07-17T01:40:36;19.20;48.90
8936;DHT22;4503;47.810;13.072;2022-07-17T01:43:02;19.20;49.00
8936;DHT22;4503;47.810;13.072;2022-07-17T01:45:28;19.10;48.90
8936;DHT22;4503;47.810;13.072;2022-07-17T01:47:54;19.10;49.40
8936;DHT22;4503;47.810;13.072;2022-07-17T01:50:20;19.10;49.60
8936;DHT22;4503;47.810;13.072;2022-07-17T01:52:46;19.10;49.20
8936;DHT22;4503;47.810;13.072;2022-07-17T01:55:15;19.10;49.30
8936;DHT22;4503;47.810;13.072;2022-07-17T01:57:42;19.00;49.30
8936;DHT22;4503;47.810;13.072;2022-07-17T02:00:12;19.00;49.20
8936;DHT22;4503;47.810;13.072;2022-07-17T02:02:40;19.00;49.20
8936;DHT22;4503;47.810;13.072;2022-07-17T02:05:07;18.90;49.20
8936;DHT22;4503;47.810;13.072;2022-07-17T02:07:33;18.90;49.60
8936;DHT22;4503;47.810;13.072;2022-07-17T02:10:00;18.90;49.60
8936;DHT22;4503;47.810;13.072;2022-07-17T02:12:26;18.80;49.50
8936;DHT22;4503;47.810;13.072;2022-07-17T02:14:52;18.80;49.70
8936;DHT22;4503;47.810;13.072;2022-07-17T02:17:18;18.80;49.70
8936;DHT22;4503;47.810;13.072;2022-07-17T02:19:44;18.80;49.80
8936;DHT22;4503;47.810;13.072;2022-07-17T02:22:10;18.70;49.80
8936;DHT22;4503;47.810;13.072;2022-07-17T02:24:35;18.70;50.00
8936;DHT22;4503;47.810;13.072;2022-07-17T02:27:01;18.70;50.10
8936;DHT22;4503;47.810;13.072;2022-07-17T02:29:27;18.60;50.00
8936;DHT22;4503;47.810;13.072;2022-07-17T02:31:53;18.60;50.00
8936;DHT22;4503;47.810;13.072;2022-07-17T02:34:19;18.60;50.00
8936;DHT22;4503;47.810;13.072;2022-07-17T02:36:45;18.60;50.00
8936;DHT22;4503;47.810;13.072;2022-07-17T02:39:11;18.60;50.10
8936;DHT22;4503;47.810;13.072;2022-07-17T02:41:37;18.50;50.10
8936;DHT22;4503;47.810;13.072;2022-07-17T02:44:02;18.50;50.10
8936;DHT22;4503;47.810;13.072;2022-07-17T02:46:28;18.50;50.30
8936;DHT22;4503;47.810;13.072;2022-07-17T02:48:54;18.50;50.30
8936;DHT22;4503;47.810;13.072;2022-07-17T02:51:20;18.50;50.30
8936;DHT22;4503;47.810;13.072;2022-07-17T02:53:46;18.50;50.30
8936;DHT22;4503;47.810;13.072;2022-07-17T02:56:11;18.50;50.40
8936;DHT22;4503;47.810;13.072;2022-07-17T02:58:38;18.40;50.40
8936;DHT22;4503;47.810;13.072;2022-07-17T03:01:04;18.40;50.30
8936;DHT22;4503;47.810;13.072;2022-07-17T03:03:29;18.30;50.20
8936;DHT22;4503;47.810;13.072;2022-07-17T03:05:55;18.30;50.20
8936;DHT22;4503;47.810;13.072;2022-07-17T03:12:02;18.30;50.50
8936;DHT22;4503;47.810;13.072;2022-07-17T03:14:28;18.30;50.00
8936;DHT22;4503;47.810;13.072;2022-07-17T03:16:54;18.20;50.00
8936;DHT22;4503;47.810;13.072;2022-07-17T03:19:20;18.20;49.90
8936;DHT22;4503;47.810;13.072;2022-07-17T03:21:46;18.20;50.10
8936;DHT22;4503;47.810;13.072;2022-07-17T03:24:12;18.10;50.10
8936;DHT22;4503;47.810;13.072;2022-07-17T03:26:38;18.20;50.20
8936;DHT22;4503;47.810;13.072;2022-07-17T03:29:05;18.10;50.00
8936;DHT22;4503;47.810;13.072;2022-07-17T03:31:31;18.20;50.00
8936;DHT22;4503;47.810;13.072;2022-07-17T03:33:58;18.20;50.40
8936;DHT22;4503;47.810;13.072;2022-07-17T03:36:25;18.20;50.60
8936;DHT22;4503;47.810;13.072;2022-07-17T03:38:51;18.20;50.50
8936;DHT22;4503;47.810;13.072;2022-07-17T03:41:17;18.20;50.60
8936;DHT22;4503;47.810;13.072;2022-07-17T03:43:44;18.30;50.70
8936;DHT22;4503;47.810;13.072;2022-07-17T03:46:10;18.30;50.70
8936;DHT22;4503;47.810;13.072;2022-07-17T03:48:36;18.20;51.00
8936;DHT22;4503;47.810;13.072;2022-07-17T03:51:02;18.20;51.00
8936;DHT22;4503;47.810;13.072;2022-07-17T03:53:28;18.20;51.00
8936;DHT22;4503;47.810;13.072;2022-07-17T03:55:54;18.20;50.90
8936;DHT22;4503;47.810;13.072;2022-07-17T03:58:20;18.20;50.90
8936;DHT22;4503;47.810;13.072;2022-07-17T04:00:46;18.20;50.70
8936;DHT22;4503;47.810;13.072;2022-07-17T04:03:12;18.20;50.90
8936;DHT22;4503;47.810;13.072;2022-07-17T04:05:38;18.10;50.70
8936;DHT22;4503;47.810;13.072;2022-07-17T04:08:04;18.10;51.00
8936;DHT22;4503;47.810;13.072;2022-07-17T04:10:30;18.10;51.30
8936;DHT22;4503;47.810;13.072;2022-07-17T04:12:56;18.10;51.30
8936;DHT22;4503;47.810;13.072;2022-07-17T04:15:22;18.10;51.50
8936;DHT22;4503;47.810;13.072;2022-07-17T04:18:11;18.10;51.60
8936;DHT22;4503;47.810;13.072;2022-07-17T04:20:38;18.10;51.60
8936;DHT22;4503;47.810;13.072;2022-07-17T04:23:04;18.10;51.50
8936;DHT22;4503;47.810;13.072;2022-07-17T04:25:31;18.10;51.60
8936;DHT22;4503;47.810;13.072;2022-07-17T04:27:57;18.00;51.60
8936;DHT22;4503;47.810;13.072;2022-07-17T04:30:23;18.00;51.80
8936;DHT22;4503;47.810;13.072;2022-07-17T04:32:49;17.90;52.00
8936;DHT22;4503;47.810;13.072;2022-07-17T04:35:15;17.90;51.70
8936;DHT22;4503;47.810;13.072;2022-07-17T04:37:41;17.80;51.90
8936;DHT22;4503;47.810;13.072;2022-07-17T04:40:08;17.80;52.00
8936;DHT22;4503;47.810;13.072;2022-07-17T04:42:35;17.80;52.40
8936;DHT22;4503;47.810;13.072;2022-07-17T04:45:01;17.70;52.40
8936;DHT22;4503;47.810;13.072;2022-07-17T04:47:26;17.80;52.70
8936;DHT22;4503;47.810;13.072;2022-07-17T04:49:53;17.80;52.90
8936;DHT22;4503;47.810;13.072;2022-07-17T04:52:19;17.80;52.90
8936;DHT22;4503;47.810;13.072;2022-07-17T04:54:44;17.80;52.90
8936;DHT22;4503;47.810;13.072;2022-07-17T04:57:11;17.90;52.90
8936;DHT22;4503;47.810;13.072;2022-07-17T04:59:36;17.90;52.80
8936;DHT22;4503;47.810;13.072;2022-07-17T05:02:03;18.00;52.90
8936;DHT22;4503;47.810;13.072;2022-07-17T05:04:30;18.00;52.80
8936;DHT22;4503;47.810;13.072;2022-07-17T05:06:56;18.10;52.90
8936;DHT22;4503;47.810;13.072;2022-07-17T05:09:22;18.10;52.90
8936;DHT22;4503;47.810;13.072;2022-07-17T05:11:48;18.20;52.90
8936;DHT22;4503;47.810;13.072;2022-07-17T05:14:14;18.20;52.90
8936;DHT22;4503;47.810;13.072;2022-07-17T05:16:40;18.30;52.90
8936;DHT22;4503;47.810;13.072;2022-07-17T05:19:06;18.30;52.70
8936;DHT22;4503;47.810;13.072;2022-07-17T05:21:32;18.30;52.70
8936;DHT22;4503;47.810;13.072;2022-07-17T05:23:58;18.30;52.90
8936;DHT22;4503;47.810;13.072;2022-07-17T05:26:24;18.30;53.00
8936;DHT22;4503;47.810;13.072;2022-07-17T05:28:51;18.40;53.10
8936;DHT22;4503;47.810;13.072;2022-07-17T05:31:17;18.40;53.30
8936;DHT22;4503;47.810;13.072;2022-07-17T05:33:44;18.40;53.40
8936;DHT22;4503;47.810;13.072;2022-07-17T05:36:10;18.50;53.50
8936;DHT22;4503;47.810;13.072;2022-07-17T05:38:36;18.60;53.50
8936;DHT22;4503;47.810;13.072;2022-07-17T05:41:03;18.60;53.50
8936;DHT22;4503;47.810;13.072;2022-07-17T05:43:30;18.70;53.60
8936;DHT22;4503;47.810;13.072;2022-07-17T05:45:57;18.70;53.50
8936;DHT22;4503;47.810;13.072;2022-07-17T05:48:24;18.80;53.60
8936;DHT22;4503;47.810;13.072;2022-07-17T05:50:52;18.90;53.70
8936;DHT22;4503;47.810;13.072;2022-07-17T05:53:18;18.90;53.70
8936;DHT22;4503;47.810;13.072;2022-07-17T05:55:44;19.00;53.80
8936;DHT22;4503;47.810;13.072;2022-07-17T05:58:10;19.00;53.80
8936;DHT22;4503;47.810;13.072;2022-07-17T06:00:36;19.10;53.90
8936;DHT22;4503;47.810;13.072;2022-07-17T06:03:03;19.10;53.80
8936;DHT22;4503;47.810;13.072;2022-07-17T06:05:31;19.20;53.90
8936;DHT22;4503;47.810;13.072;2022-07-17T06:07:58;19.30;54.00
8936;DHT22;4503;47.810;13.072;2022-07-17T06:10:25;19.30;53.90
8936;DHT22;4503;47.810;13.072;2022-07-17T06:12:52;19.40;54.00
8936;DHT22;4503;47.810;13.072;2022-07-17T06:15:20;19.50;54.10
8936;DHT22;4503;47.810;13.072;2022-07-17T06:17:46;19.50;54.20
8936;DHT22;4503;47.810;13.072;2022-07-17T06:20:14;19.60;54.20
8936;DHT22;4503;47.810;13.072;2022-07-17T06:22:41;19.70;54.20
8936;DHT22;4503;47.810;13.072;2022-07-17T06:25:08;19.80;54.20
8936;DHT22;4503;47.810;13.072;2022-07-17T06:27:35;19.80;54.20
8936;DHT22;4503;47.810;13.072;2022-07-17T06:30:04;19.90;54.20
8936;DHT22;4503;47.810;13.072;2022-07-17T06:32:30;20.00;54.80
8936;DHT22;4503;47.810;13.072;2022-07-17T06:34:56;20.10;54.20
8936;DHT22;4503;47.810;13.072;2022-07-17T06:37:22;20.10;54.20
8936;DHT22;4503;47.810;13.072;2022-07-17T06:39:48;20.20;54.30
8936;DHT22;4503;47.810;13.072;2022-07-17T06:42:14;20.30;53.90
8936;DHT22;4503;47.810;13.072;2022-07-17T06:44:41;20.40;54.00
8936;DHT22;4503;47.810;13.072;2022-07-17T06:47:07;20.50;54.00
8936;DHT22;4503;47.810;13.072;2022-07-17T06:49:33;20.60;53.80
8936;DHT22;4503;47.810;13.072;2022-07-17T06:51:59;20.70;54.00
8936;DHT22;4503;47.810;13.072;2022-07-17T06:54:25;20.80;54.10
8936;DHT22;4503;47.810;13.072;2022-07-17T06:56:52;20.90;54.60
8936;DHT22;4503;47.810;13.072;2022-07-17T06:59:19;21.00;54.20
8936;DHT22;4503;47.810;13.072;2022-07-17T07:01:46;21.10;54.10
8936;DHT22;4503;47.810;13.072;2022-07-17T07:04:13;21.20;54.10
8936;DHT22;4503;47.810;13.072;2022-07-17T07:06:38;21.30;54.10
8936;DHT22;4503;47.810;13.072;2022-07-17T07:09:05;21.40;54.20
8936;DHT22;4503;47.810;13.072;2022-07-17T07:11:31;21.50;54.30
8936;DHT22;4503;47.810;13.072;2022-07-17T07:13:57;21.50;54.10
8936;DHT22;4503;47.810;13.072;2022-07-17T07:16:23;21.70;54.10
8936;DHT22;4503;47.810;13.072;2022-07-17T07:18:49;21.80;53.90
8936;DHT22;4503;47.810;13.072;2022-07-17T07:21:15;21.90;53.90
8936;DHT22;4503;47.810;13.072;2022-07-17T07:23:41;21.90;53.80
8936;DHT22;4503;47.810;13.072;2022-07-17T07:26:07;22.00;53.80
8936;DHT22;4503;47.810;13.072;2022-07-17T07:28:33;22.10;53.40
8936;DHT22;4503;47.810;13.072;2022-07-17T07:31:00;22.20;53.40
8936;DHT22;4503;47.810;13.072;2022-07-17T07:33:26;22.30;53.30
8936;DHT22;4503;47.810;13.072;2022-07-17T07:35:52;22.50;53.40
8936;DHT22;4503;47.810;13.072;2022-07-17T07:38:18;22.60;53.30
8936;DHT22;4503;47.810;13.072;2022-07-17T07:40:44;22.70;53.10
8936;DHT22;4503;47.810;13.072;2022-07-17T07:43:10;22.80;53.10
8936;DHT22;4503;47.810;13.072;2022-07-17T07:45:36;22.90;53.10
8936;DHT22;4503;47.810;13.072;2022-07-17T07:48:02;23.00;52.90
8936;DHT22;4503;47.810;13.072;2022-07-17T07:50:29;23.00;52.70
8936;DHT22;4503;47.810;13.072;2022-07-17T07:52:55;23.10;52.50
8936;DHT22;4503;47.810;13.072;2022-07-17T07:55:21;23.30;52.70
8936;DHT22;4503;47.810;13.072;2022-07-17T07:58:00;23.40;52.70
8936;DHT22;4503;47.810;13.072;2022-07-17T08:00:34;23.40;52.90
8936;DHT22;4503;47.810;13.072;2022-07-17T08:03:01;23.60;52.80
8936;DHT22;4503;47.810;13.072;2022-07-17T08:05:27;23.70;52.70
8936;DHT22;4503;47.810;13.072;2022-07-17T08:07:53;23.80;52.60
8936;DHT22;4503;47.810;13.072;2022-07-17T08:10:19;23.90;52.60
8936;DHT22;4503;47.810;13.072;2022-07-17T08:12:45;24.00;52.50
8936;DHT22;4503;47.810;13.072;2022-07-17T08:15:14;24.10;52.50
8936;DHT22;4503;47.810;13.072;2022-07-17T08:17:42;24.20;52.40
8936;DHT22;4503;47.810;13.072;2022-07-17T08:20:09;24.30;52.30
8936;DHT22;4503;47.810;13.072;2022-07-17T08:22:35;24.40;52.30
8936;DHT22;4503;47.810;13.072;2022-07-17T08:25:02;24.50;52.40
8936;DHT22;4503;47.810;13.072;2022-07-17T08:27:34;24.50;52.40
8936;DHT22;4503;47.810;13.072;2022-07-17T08:30:02;24.70;52.50
8936;DHT22;4503;47.810;13.072;2022-07-17T08:32:33;24.80;52.50
8936;DHT22;4503;47.810;13.072;2022-07-17T08:34:59;24.90;52.30
8936;DHT22;4503;47.810;13.072;2022-07-17T08:37:25;25.00;52.10
8936;DHT22;4503;47.810;13.072;2022-07-17T08:39:52;25.10;52.00
8936;DHT22;4503;47.810;13.072;2022-07-17T08:42:18;25.10;51.80
8936;DHT22;4503;47.810;13.072;2022-07-17T08:44:45;25.20;51.80
8936;DHT22;4503;47.810;13.072;2022-07-17T08:47:12;25.30;51.90
8936;DHT22;4503;47.810;13.072;2022-07-17T08:49:49;25.40;51.70
8936;DHT22;4503;47.810;13.072;2022-07-17T08:52:15;25.50;51.00
8936;DHT22;4503;47.810;13.072;2022-07-17T08:54:41;25.60;50.80
8936;DHT22;4503;47.810;13.072;2022-07-17T08:57:08;25.70;50.60
8936;DHT22;4503;47.810;13.072;2022-07-17T08:59:37;25.80;50.50
8936;DHT22;4503;47.810;13.072;2022-07-17T09:02:04;25.80;50.90
8936;DHT22;4503;47.810;13.072;2022-07-17T09:04:31;25.90;50.00
8936;DHT22;4503;47.810;13.072;2022-07-17T09:07:00;26.00;49.90
8936;DHT22;4503;47.810;13.072;2022-07-17T09:09:27;26.10;49.80
8936;DHT22;4503;47.810;13.072;2022-07-17T09:11:55;26.20;49.70
8936;DHT22;4503;47.810;13.072;2022-07-17T09:14:41;26.20;49.60
8936;DHT22;4503;47.810;13.072;2022-07-17T09:17:09;26.30;48.70
8936;DHT22;4503;47.810;13.072;2022-07-17T09:19:41;26.50;49.10
8936;DHT22;4503;47.810;13.072;2022-07-17T09:22:16;26.50;48.80
8936;DHT22;4503;47.810;13.072;2022-07-17T09:24:54;26.60;48.40
8936;DHT22;4503;47.810;13.072;2022-07-17T09:32:40;26.80;48.00
8936;DHT22;4503;47.810;13.072;2022-07-17T09:35:16;26.80;47.80
8936;DHT22;4503;47.810;13.072;2022-07-17T09:37:42;26.90;47.90
8936;DHT22;4503;47.810;13.072;2022-07-17T09:40:11;26.90;48.20
8936;DHT22;4503;47.810;13.072;2022-07-17T09:42:58;27.00;47.70
8936;DHT22;4503;47.810;13.072;2022-07-17T09:45:24;27.10;47.70
8936;DHT22;4503;47.810;13.072;2022-07-17T09:47:52;27.10;47.10
8936;DHT22;4503;47.810;13.072;2022-07-17T09:50:19;27.20;47.20
8936;DHT22;4503;47.810;13.072;2022-07-17T09:52:45;27.30;47.20
8936;DHT22;4503;47.810;13.072;2022-07-17T09:55:12;27.30;46.80
8936;DHT22;4503;47.810;13.072;2022-07-17T09:57:40;27.30;46.40
8936;DHT22;4503;47.810;13.072;2022-07-17T10:00:09;27.40;46.50
8936;DHT22;4503;47.810;13.072;2022-07-17T10:02:45;27.40;46.40
8936;DHT22;4503;47.810;13.072;2022-07-17T10:05:13;27.50;46.00
8936;DHT22;4503;47.810;13.072;2022-07-17T10:07:44;27.50;46.00
8936;DHT22;4503;47.810;13.072;2022-07-17T10:10:12;27.50;46.00
8936;DHT22;4503;47.810;13.072;2022-07-17T10:12:41;27.60;46.00
8936;DHT22;4503;47.810;13.072;2022-07-17T10:15:09;27.60;45.80
8936;DHT22;4503;47.810;13.072;2022-07-17T10:17:35;27.70;45.60
8936;DHT22;4503;47.810;13.072;2022-07-17T10:20:03;27.70;45.60
8936;DHT22;4503;47.810;13.072;2022-07-17T10:22:44;27.80;45.10
8936;DHT22;4503;47.810;13.072;2022-07-17T10:25:16;27.80;45.10
8936;DHT22;4503;47.810;13.072;2022-07-17T10:27:56;27.90;45.20
8936;DHT22;4503;47.810;13.072;2022-07-17T10:30:30;27.90;44.80
8936;DHT22;4503;47.810;13.072;2022-07-17T10:32:59;28.00;45.10
8936;DHT22;4503;47.810;13.072;2022-07-17T10:35:27;28.00;45.00
8936;DHT22;4503;47.810;13.072;2022-07-17T10:38:09;28.10;45.30
8936;DHT22;4503;47.810;13.072;2022-07-17T10:40:40;28.10;44.80
8936;DHT22;4503;47.810;13.072;2022-07-17T10:43:08;28.20;44.60
8936;DHT22;4503;47.810;13.072;2022-07-17T10:45:37;28.20;44.50
8936;DHT22;4503;47.810;13.072;2022-07-17T10:48:13;28.20;44.30
8936;DHT22;4503;47.810;13.072;2022-07-17T10:50:45;28.30;44.40
8936;DHT22;4503;47.810;13.072;2022-07-17T10:53:21;28.30;44.40
8936;DHT22;4503;47.810;13.072;2022-07-17T10:55:55;28.40;44.60
8936;DHT22;4503;47.810;13.072;2022-07-17T10:58:29;28.50;44.30
8936;DHT22;4503;47.810;13.072;2022-07-17T11:03:53;28.50;44.30
8936;DHT22;4503;47.810;13.072;2022-07-17T11:06:29;28.60;44.50
8936;DHT22;4503;47.810;13.072;2022-07-17T11:11:48;28.70;43.70
8936;DHT22;4503;47.810;13.072;2022-07-17T11:14:19;28.70;43.50
8936;DHT22;4503;47.810;13.072;2022-07-17T11:16:53;28.70;43.30
8936;DHT22;4503;47.810;13.072;2022-07-17T11:19:22;28.80;43.40
8936;DHT22;4503;47.810;13.072;2022-07-17T11:22:05;28.80;43.30
8936;DHT22;4503;47.810;13.072;2022-07-17T11:24:43;29.00;43.70
8936;DHT22;4503;47.810;13.072;2022-07-17T11:27:21;29.00;43.40
8936;DHT22;4503;47.810;13.072;2022-07-17T11:29:48;29.10;43.10
8936;DHT22;4503;47.810;13.072;2022-07-17T11:32:14;29.20;43.00
8936;DHT22;4503;47.810;13.072;2022-07-17T11:34:40;29.30;43.30
8936;DHT22;4503;47.810;13.072;2022-07-17T11:37:08;29.30;42.80
8936;DHT22;4503;47.810;13.072;2022-07-17T11:39:43;29.20;42.90
8936;DHT22;4503;47.810;13.072;2022-07-17T11:42:20;29.20;42.80
8936;DHT22;4503;47.810;13.072;2022-07-17T11:44:49;29.30;42.80
8936;DHT22;4503;47.810;13.072;2022-07-17T11:47:22;29.30;42.60
8936;DHT22;4503;47.810;13.072;2022-07-17T11:49:50;29.40;42.80
8936;DHT22;4503;47.810;13.072;2022-07-17T11:52:18;29.50;42.50
8936;DHT22;4503;47.810;13.072;2022-07-17T11:54:53;29.50;42.60
8936;DHT22;4503;47.810;13.072;2022-07-17T11:57:22;29.60;41.90
8936;DHT22;4503;47.810;13.072;2022-07-17T11:59:51;29.60;42.10
8936;DHT22;4503;47.810;13.072;2022-07-17T12:02:23;29.70;42.20
8936;DHT22;4503;47.810;13.072;2022-07-17T12:04:58;29.80;41.90
8936;DHT22;4503;47.810;13.072;2022-07-17T12:07:40;30.00;41.80
8936;DHT22;4503;47.810;13.072;2022-07-17T12:13:01;30.30;40.90
8936;DHT22;4503;47.810;13.072;2022-07-17T12:15:37;30.50;40.40
8936;DHT22;4503;47.810;13.072;2022-07-17T12:18:05;30.70;40.10
8936;DHT22;4503;47.810;13.072;2022-07-17T12:20:46;30.90;40.20
8936;DHT22;4503;47.810;13.072;2022-07-17T12:26:06;31.40;40.10
8936;DHT22;4503;47.810;13.072;2022-07-17T12:28:34;31.70;39.60
8936;DHT22;4503;47.810;13.072;2022-07-17T12:31:01;31.90;40.00
8936;DHT22;4503;47.810;13.072;2022-07-17T12:33:27;32.20;39.40
8936;DHT22;4503;47.810;13.072;2022-07-17T12:35:53;32.20;39.20
8936;DHT22;4503;47.810;13.072;2022-07-17T12:38:19;32.40;39.40
8936;DHT22;4503;47.810;13.072;2022-07-17T12:40:45;32.50;39.40
8936;DHT22;4503;47.810;13.072;2022-07-17T12:43:11;32.60;38.90
8936;DHT22;4503;47.810;13.072;2022-07-17T12:45:37;32.70;38.90
8936;DHT22;4503;47.810;13.072;2022-07-17T12:48:03;32.90;38.70
8936;DHT22;4503;47.810;13.072;2022-07-17T12:50:29;33.10;38.40
8936;DHT22;4503;47.810;13.072;2022-07-17T12:52:55;33.30;38.40
8936;DHT22;4503;47.810;13.072;2022-07-17T12:55:21;33.50;38.60
8936;DHT22;4503;47.810;13.072;2022-07-17T12:57:47;33.60;38.20
8936;DHT22;4503;47.810;13.072;2022-07-17T13:00:13;33.70;38.10
8936;DHT22;4503;47.810;13.072;2022-07-17T13:02:40;33.70;38.30
8936;DHT22;4503;47.810;13.072;2022-07-17T13:05:07;33.90;37.60
8936;DHT22;4503;47.810;13.072;2022-07-17T13:07:33;34.00;37.30
8936;DHT22;4503;47.810;13.072;2022-07-17T13:09:59;34.10;37.10
8936;DHT22;4503;47.810;13.072;2022-07-17T13:12:25;34.20;37.10
8936;DHT22;4503;47.810;13.072;2022-07-17T13:14:51;34.30;37.30
8936;DHT22;4503;47.810;13.072;2022-07-17T13:17:18;34.50;36.80
8936;DHT22;4503;47.810;13.072;2022-07-17T13:19:44;34.60;36.70
8936;DHT22;4503;47.810;13.072;2022-07-17T13:22:09;34.60;36.70
8936;DHT22;4503;47.810;13.072;2022-07-17T13:24:35;34.70;36.80
8936;DHT22;4503;47.810;13.072;2022-07-17T13:27:01;34.80;36.40
8936;DHT22;4503;47.810;13.072;2022-07-17T13:29:28;34.80;35.80
8936;DHT22;4503;47.810;13.072;2022-07-17T13:31:54;34.70;35.20
8936;DHT22;4503;47.810;13.072;2022-07-17T13:34:21;34.50;35.10
8936;DHT22;4503;47.810;13.072;2022-07-17T13:36:48;34.40;35.20
8936;DHT22;4503;47.810;13.072;2022-07-17T13:39:14;34.40;35.60
8936;DHT22;4503;47.810;13.072;2022-07-17T13:41:41;34.40;35.60
8936;DHT22;4503;47.810;13.072;2022-07-17T13:44:08;34.50;35.30
8936;DHT22;4503;47.810;13.072;2022-07-17T13:46:34;34.60;35.40
8936;DHT22;4503;47.810;13.072;2022-07-17T13:49:00;34.70;35.30
8936;DHT22;4503;47.810;13.072;2022-07-17T13:51:27;34.80;35.00
8936;DHT22;4503;47.810;13.072;2022-07-17T13:53:57;34.80;34.90
8936;DHT22;4503;47.810;13.072;2022-07-17T13:56:23;34.90;35.00
8936;DHT22;4503;47.810;13.072;2022-07-17T13:58:50;34.90;35.10
8936;DHT22;4503;47.810;13.072;2022-07-17T14:01:15;35.00;34.80
8936;DHT22;4503;47.810;13.072;2022-07-17T14:03:42;35.10;35.20
8936;DHT22;4503;47.810;13.072;2022-07-17T14:06:08;35.30;34.70
8936;DHT22;4503;47.810;13.072;2022-07-17T14:08:34;35.40;34.60
8936;DHT22;4503;47.810;13.072;2022-07-17T14:11:01;35.40;34.30
8936;DHT22;4503;47.810;13.072;2022-07-17T14:13:28;35.40;33.80
8936;DHT22;4503;47.810;13.072;2022-07-17T14:15:55;35.40;33.70
8936;DHT22;4503;47.810;13.072;2022-07-17T14:18:21;35.40;34.20
8936;DHT22;4503;47.810;13.072;2022-07-17T14:20:47;35.40;34.50
8936;DHT22;4503;47.810;13.072;2022-07-17T14:23:13;35.60;34.40
8936;DHT22;4503;47.810;13.072;2022-07-17T14:25:39;35.80;34.60
8936;DHT22;4503;47.810;13.072;2022-07-17T14:28:05;36.00;34.80
8936;DHT22;4503;47.810;13.072;2022-07-17T14:30:31;36.40;35.00
8936;DHT22;4503;47.810;13.072;2022-07-17T14:32:58;36.70;34.80
8936;DHT22;4503;47.810;13.072;2022-07-17T14:35:24;37.10;34.70
8936;DHT22;4503;47.810;13.072;2022-07-17T14:37:51;37.50;34.40
8936;DHT22;4503;47.810;13.072;2022-07-17T14:40:16;37.90;34.00
8936;DHT22;4503;47.810;13.072;2022-07-17T14:42:42;38.20;33.40
8936;DHT22;4503;47.810;13.072;2022-07-17T14:45:09;38.50;32.90
8936;DHT22;4503;47.810;13.072;2022-07-17T14:47:35;38.80;31.90
8936;DHT22;4503;47.810;13.072;2022-07-17T14:50:02;38.90;31.50
8936;DHT22;4503;47.810;13.072;2022-07-17T14:52:29;39.10;31.70
8936;DHT22;4503;47.810;13.072;2022-07-17T14:54:54;39.30;31.60
8936;DHT22;4503;47.810;13.072;2022-07-17T14:57:20;39.50;31.00
8936;DHT22;4503;47.810;13.072;2022-07-17T14:59:46;39.70;31.40
8936;DHT22;4503;47.810;13.072;2022-07-17T15:02:12;39.90;31.00
8936;DHT22;4503;47.810;13.072;2022-07-17T15:04:38;40.20;30.40
8936;DHT22;4503;47.810;13.072;2022-07-17T15:07:04;40.50;30.20
8936;DHT22;4503;47.810;13.072;2022-07-17T15:09:30;40.70;30.10
8936;DHT22;4503;47.810;13.072;2022-07-17T15:19:24;41.30;29.90
8936;DHT22;4503;47.810;13.072;2022-07-17T15:21:50;41.50;29.40
8936;DHT22;4503;47.810;13.072;2022-07-17T15:24:16;41.60;29.30
8936;DHT22;4503;47.810;13.072;2022-07-17T15:26:42;41.80;29.40
8936;DHT22;4503;47.810;13.072;2022-07-17T15:29:08;41.90;29.00
8936;DHT22;4503;47.810;13.072;2022-07-17T15:31:34;42.00;28.70
8936;DHT22;4503;47.810;13.072;2022-07-17T15:34:00;42.00;28.90
8936;DHT22;4503;47.810;13.072;2022-07-17T15:36:26;42.20;28.40
8936;DHT22;4503;47.810;13.072;2022-07-17T15:38:57;42.20;28.30
8936;DHT22;4503;47.810;13.072;2022-07-17T15:41:28;42.40;28.10
8936;DHT22;4503;47.810;13.072;2022-07-17T15:43:54;42.40;27.70
8936;DHT22;4503;47.810;13.072;2022-07-17T15:46:20;42.30;27.30
8936;DHT22;4503;47.810;13.072;2022-07-17T15:48:47;42.30;27.60
8936;DHT22;4503;47.810;13.072;2022-07-17T15:51:13;42.20;27.40
8936;DHT22;4503;47.810;13.072;2022-07-17T15:53:40;42.30;27.60
8936;DHT22;4503;47.810;13.072;2022-07-17T15:56:06;42.40;27.60
8936;DHT22;4503;47.810;13.072;2022-07-17T15:58:33;42.40;27.30
8936;DHT22;4503;47.810;13.072;2022-07-17T16:00:59;42.30;27.00
8936;DHT22;4503;47.810;13.072;2022-07-17T16:03:25;42.30;27.10
8936;DHT22;4503;47.810;13.072;2022-07-17T16:05:51;42.20;27.20
8936;DHT22;4503;47.810;13.072;2022-07-17T16:08:17;42.20;26.80
8936;DHT22;4503;47.810;13.072;2022-07-17T16:10:43;42.10;27.10
8936;DHT22;4503;47.810;13.072;2022-07-17T16:13:09;42.00;27.00